Rechercher aéroport 
image banner adimage banner adimage banner ad
image banner ad

KGOO - Nevada County Air Park

Situé à Grass Valley, United States

ICAO - GOO, IATA -

Données fournies par Airmate  

Information générale

Coordonnées: N39°13'27" W121°0'9"
Élévation : 3158 feet MSL.
Variation magnétique : 16° East
Voir autres Aéroports à California

Données opérationnelles

Special qualification required
Heure actuelle UTC:
Heure actuelle locale:
Météo
METAR: KGOO 212250Z AUTO 25005KT 10SM CLR 32/01 A3021 RMK A01
Voir NOTAMs / SUP AIP / TFR affectant cet aéroport [VIEW]
Fréquences de communication: [VIEW]

Pistes:

Identifiant RWYQFULongueur (ft)Largeur (ft)SurfaceLDA (ft)
0787°465775ASPH
25267°465775ASPH

Coordonnées de l'aéroport

Adresse: Grass Valley United States

Autres services d'aviation

Écoles de pilotage

Alpine Aviation, Inc.

Alpine Aviation, Inc.
sandy@flyalpine.com+1(530)477-7701

Vue satellite de KGOO